sensor_id;sensor_type;location;lat;lon;timestamp;pressure;altitude;pressure_sealevel;temperature;humidity
69593;BME280;56796;50.122;14.468;2023-01-29T00:13:00;991.18;;;-2.96;80.89
69593;BME280;56796;50.122;14.468;2023-01-29T00:32:28;991.09;;;-2.81;81.31
69593;BME280;56796;50.122;14.468;2023-01-29T00:51:48;991.07;;;-2.99;80.66
69593;BME280;56796;50.122;14.468;2023-01-29T01:11:07;990.81;;;-2.91;81.54
69593;BME280;56796;50.122;14.468;2023-01-29T01:30:32;990.83;;;-2.97;82.16
69593;BME280;56796;50.122;14.468;2023-01-29T01:49:59;990.81;;;-3.09;82.91
69593;BME280;56796;50.122;14.468;2023-01-29T02:09:26;990.71;;;-3.25;84.47
69593;BME280;56796;50.122;14.468;2023-01-29T02:28:43;990.65;;;-3.22;85.7
69593;BME280;56796;50.122;14.468;2023-01-29T02:48:09;990.73;;;-3.18;86.2
69593;BME280;56796;50.122;14.468;2023-01-29T03:07:36;990.95;;;-3.21;86.41
69593;BME280;56796;50.122;14.468;2023-01-29T03:27:01;990.81;;;-3.29;85.96
69593;BME280;56796;50.122;14.468;2023-01-29T03:46:26;990.7;;;-3.34;85.43
69593;BME280;56796;50.122;14.468;2023-01-29T04:05:53;990.7;;;-3.47;84.9
69593;BME280;56796;50.122;14.468;2023-01-29T04:25:21;990.53;;;-3.58;84.3
69593;BME280;56796;50.122;14.468;2023-01-29T04:44:46;990.5;;;-3.81;84.09
69593;BME280;56796;50.122;14.468;2023-01-29T05:03:52;990.44;;;-4.08;84.14
69593;BME280;56796;50.122;14.468;2023-01-29T05:23:21;990.18;;;-4.29;84.22
69593;BME280;56796;50.122;14.468;2023-01-29T05:42:33;990.16;;;-4.42;84.68
69593;BME280;56796;50.122;14.468;2023-01-29T06:01:58;989.95;;;-4.32;84.62
69593;BME280;56796;50.122;14.468;2023-01-29T06:21:23;989.73;;;-4.01;83.53
69593;BME280;56796;50.122;14.468;2023-01-29T06:40:49;989.8;;;-3.76;83.24
69593;BME280;56796;50.122;14.468;2023-01-29T07:00:15;989.9;;;-3.63;82.56
69593;BME280;56796;50.122;14.468;2023-01-29T07:19:41;990.22;;;-3.55;81.65
69593;BME280;56796;50.122;14.468;2023-01-29T07:39:08;990.55;;;-3.23;81.73
69593;BME280;56796;50.122;14.468;2023-01-29T07:58:34;990.62;;;-3;80.94
69593;BME280;56796;50.122;14.468;2023-01-29T08:37:28;990.66;;;-2.56;80.64
69593;BME280;56796;50.122;14.468;2023-01-29T08:56:56;990.6;;;-1.68;78.33
69593;BME280;56796;50.122;14.468;2023-01-29T09:16:24;990.39;;;0.45;75.73
69593;BME280;56796;50.122;14.468;2023-01-29T09:36:07;990.32;;;3.02;61.72
69593;BME280;56796;50.122;14.468;2023-01-29T09:55:36;990.31;;;2.75;61.84
69593;BME280;56796;50.122;14.468;2023-01-29T10:14:59;989.76;;;0.93;65.01
69593;BME280;56796;50.122;14.468;2023-01-29T10:34:23;989.7;;;0.78;65.25
69593;BME280;56796;50.122;14.468;2023-01-29T10:53:47;989.33;;;-0.33;67.85
69593;BME280;56796;50.122;14.468;2023-01-29T11:12:52;988.98;;;0.47;67.94
69593;BME280;56796;50.122;14.468;2023-01-29T11:32:23;988.75;;;0.54;66.38
69593;BME280;56796;50.122;14.468;2023-01-29T11:51:42;988.56;;;-0.72;70.69
69593;BME280;56796;50.122;14.468;2023-01-29T12:11:06;988.14;;;-0.5;71.18
69593;BME280;56796;50.122;14.468;2023-01-29T12:30:30;988.16;;;-0.38;71.45
69593;BME280;56796;50.122;14.468;2023-01-29T12:49:55;987.9;;;-0.43;72.58
69593;BME280;56796;50.122;14.468;2023-01-29T13:09:21;987.8;;;-0.48;73.52
69593;BME280;56796;50.122;14.468;2023-01-29T13:28:46;987.43;;;-0.27;73.31
69593;BME280;56796;50.122;14.468;2023-01-29T13:48:18;987.28;;;-0.16;73.76
69593;BME280;56796;50.122;14.468;2023-01-29T14:07:38;987.22;;;-0.33;74.33
69593;BME280;56796;50.122;14.468;2023-01-29T14:27:01;986.86;;;-0.4;75.01
69593;BME280;56796;50.122;14.468;2023-01-29T15:05:51;987.01;;;-0.4;75.46
69593;BME280;56796;50.122;14.468;2023-01-29T15:25:16;986.9;;;-0.58;75.96
69593;BME280;56796;50.122;14.468;2023-01-29T15:44:43;986.76;;;-0.65;77.08
69593;BME280;56796;50.122;14.468;2023-01-29T16:04:08;986.62;;;-0.83;77.9
69593;BME280;56796;50.122;14.468;2023-01-29T16:23:39;986.64;;;-0.93;78.89
69593;BME280;56796;50.122;14.468;2023-01-29T16:42:55;986.8;;;-1.02;79.45
69593;BME280;56796;50.122;14.468;2023-01-29T17:02:10;986.83;;;-1.26;79.79
69593;BME280;56796;50.122;14.468;2023-01-29T17:21:36;986.7;;;-1.47;80.83
69593;BME280;56796;50.122;14.468;2023-01-29T17:40:54;986.44;;;-1.58;81.54
69593;BME280;56796;50.122;14.468;2023-01-29T18:00:19;985.99;;;-1.76;82.61
69593;BME280;56796;50.122;14.468;2023-01-29T18:19:43;985.79;;;-1.87;82.39
69593;BME280;56796;50.122;14.468;2023-01-29T18:39:09;985.84;;;-2.08;83.07
69593;BME280;56796;50.122;14.468;2023-01-29T18:58:34;985.84;;;-2.22;83.35
69593;BME280;56796;50.122;14.468;2023-01-29T19:17:58;985.81;;;-2.45;84.11
69593;BME280;56796;50.122;14.468;2023-01-29T19:37:22;985.7;;;-2.68;84.9
69593;BME280;56796;50.122;14.468;2023-01-29T19:56:46;985.57;;;-2.81;85.18
69593;BME280;56796;50.122;14.468;2023-01-29T20:16:12;985.45;;;-2.88;85.45
69593;BME280;56796;50.122;14.468;2023-01-29T20:35:37;985.13;;;-2.96;85.48
69593;BME280;56796;50.122;14.468;2023-01-29T20:55:02;984.85;;;-2.99;85.44
69593;BME280;56796;50.122;14.468;2023-01-29T21:14:26;984.7;;;-2.99;85.24
69593;BME280;56796;50.122;14.468;2023-01-29T21:33:52;984.53;;;-2.98;85.34
69593;BME280;56796;50.122;14.468;2023-01-29T21:53:18;984.34;;;-2.96;85.82
69593;BME280;56796;50.122;14.468;2023-01-29T22:12:43;984.24;;;-2.94;86.26
69593;BME280;56796;50.122;14.468;2023-01-29T22:32:09;983.8;;;-2.96;86.8
69593;BME280;56796;50.122;14.468;2023-01-29T22:51:34;983.33;;;-2.91;87.3
69593;BME280;56796;50.122;14.468;2023-01-29T23:11:02;982.94;;;-2.85;87.51
69593;BME280;56796;50.122;14.468;2023-01-29T23:30:25;982.45;;;-2.73;87.66
69593;BME280;56796;50.122;14.468;2023-01-29T23:49:52;982.18;;;-2.68;87.64
